Terminal Aerodrome Forecast
Issued by NWS Corpus Christi, TX

Home | Current Version | Previous Version | Text Only | Print | Product List | Glossary On
Versions: 1 2 3 4 5 6 7 8 9 10 11 12 13 14 15
000
FTUS44 KCRP 300500
TAFCRP
TAF
KCRP 300529Z 3006/3106 17004KT P6SM FEW012 SCT250
      TEMPO 3011/3013 5SM BR
     FM301900 14017G25KT P6SM FEW050 SCT250
     FM310200 15012KT P6SM SCT250=

USA.gov is the U.S. government's official web portal to all federal, state and local government web resources and services.